Time;durP1;ratioP1;P1;durP2;ratioP2;P2;SDS_P1;SDS_P2;PMS_P1;PMS_P2;Temp;Humidity;BMP_temperature;BMP_pressure;BME280_temperature;BME280_humidity;BME280_pressure;Samples;Min_cycle;Max_cycle;Signal;HPM_P1;HPM_P2
2023/01/02 00:01:24;;;;;;;52.07;19.37;;;;;5.00;96708.00;;;;8303754;28;20214;-77
2023/01/02 00:05:28;;;;;;;58.37;20.97;;;;;5.10;96697.00;;;;8303783;28;20321;-77
2023/01/02 00:09:32;;;;;;;48.83;16.93;;;;;5.20;96687.00;;;;8304186;28;20583;-77
2023/01/02 00:13:36;;;;;;;48.73;17.23;;;;;5.00;96689.00;;;;8303359;28;20711;-77
2023/01/02 00:17:41;;;;;;;55.33;18.87;;;;;5.00;96693.00;;;;8304075;28;20252;-77
2023/01/02 00:21:47;;;;;;;53.20;18.40;;;;;5.10;96690.00;;;;8302889;28;20194;-77
2023/01/02 00:25:57;;;;;;;54.70;18.53;;;;;5.10;96672.00;;;;8303405;28;20224;-77
2023/01/02 00:30:28;;;;;;;43.67;17.30;;;;;5.10;96677.00;;;;8302788;28;20205;-77
2023/01/02 00:34:39;;;;;;;43.47;16.40;;;;;5.00;96664.00;;;;8303850;28;20218;-77
2023/01/02 00:38:42;;;;;;;57.27;18.17;;;;;4.90;96663.00;;;;8302514;28;20205;-78
2023/01/02 00:42:48;;;;;;;60.17;21.53;;;;;5.10;96649.00;;;;8301343;28;20199;-78
2023/01/02 00:46:53;;;;;;;57.03;19.00;;;;;5.50;96653.00;;;;8302842;28;20667;-78
2023/01/02 00:50:56;;;;;;;57.97;18.03;;;;;5.60;96662.00;;;;8301270;28;20297;-78
2023/01/02 00:55:00;;;;;;;47.73;18.23;;;;;5.70;96662.00;;;;8302688;28;20702;-78
2023/01/02 00:59:38;;;;;;;47.70;17.77;;;;;5.70;96658.00;;;;8302820;28;20548;-78
2023/01/02 01:03:45;;;;;;;48.43;16.87;;;;;5.70;96659.00;;;;8300016;28;20210;-79
2023/01/02 01:07:48;;;;;;;46.43;17.10;;;;;5.50;96667.00;;;;8302112;28;20280;-78
2023/01/02 01:11:51;;;;;;;42.57;16.03;;;;;5.40;96666.00;;;;8301306;28;20246;-78
2023/01/02 01:15:59;;;;;;;51.17;17.30;;;;;5.40;96673.00;;;;8301701;28;20225;-78
2023/01/02 01:20:02;;;;;;;47.77;16.37;;;;;5.30;96684.00;;;;8301712;28;20679;-78
2023/01/02 01:24:06;;;;;;;44.20;15.83;;;;;5.20;96659.00;;;;8301501;28;20198;-78
2023/01/02 01:28:09;;;;;;;40.47;16.33;;;;;5.10;96676.00;;;;8300711;28;20602;-78
2023/01/02 01:32:14;;;;;;;46.87;16.97;;;;;5.00;96668.00;;;;8301927;28;20190;-78
2023/01/02 01:36:24;;;;;;;45.07;14.40;;;;;4.70;96654.00;;;;8300999;28;20197;-78
2023/01/02 01:40:38;;;;;;;56.33;15.33;;;;;4.60;96652.00;;;;8301477;28;20617;-78
2023/01/02 01:44:48;;;;;;;46.90;14.90;;;;;4.40;96633.00;;;;8301136;28;20200;-79
2023/01/02 01:49:03;;;;;;;43.43;15.67;;;;;4.30;96642.00;;;;8298200;28;20694;-79
2023/01/02 01:53:17;;;;;;;62.30;18.17;;;;;4.40;96636.00;;;;8300339;28;20206;-78
2023/01/02 01:57:30;;;;;;;60.57;18.77;;;;;4.70;96634.00;;;;8300569;28;20201;-78
2023/01/02 02:01:57;;;;;;;49.67;15.43;;;;;4.80;96633.00;;;;8300178;28;20221;-78
2023/01/02 02:06:08;;;;;;;42.93;15.27;;;;;4.70;96627.00;;;;8299748;28;20190;-78
2023/01/02 02:10:20;;;;;;;46.13;16.43;;;;;4.60;96628.00;;;;8298562;28;20259;-77
2023/01/02 02:14:25;;;;;;;52.83;15.77;;;;;4.60;96623.00;;;;8299654;28;20340;-78
2023/01/02 02:18:45;;;;;;;49.53;17.83;;;;;4.60;96629.00;;;;8299911;28;20210;-80
2023/01/02 02:23:31;;;;;;;53.80;18.80;;;;;4.60;96624.00;;;;8300525;28;20267;-78
2023/01/02 02:32:55;;;;;;;65.47;17.97;;;;;4.50;96604.00;;;;8299479;28;20205;-78
2023/01/02 02:37:06;;;;;;;59.53;20.83;;;;;4.50;96596.00;;;;8298321;28;20195;-78
2023/01/02 02:41:21;;;;;;;56.03;17.87;;;;;4.50;96596.00;;;;8298732;28;20189;-78
2023/01/02 02:45:33;;;;;;;53.30;17.50;;;;;4.50;96590.00;;;;8300072;28;20201;-78
2023/01/02 02:49:49;;;;;;;51.63;16.17;;;;;4.50;96592.00;;;;8299205;28;20229;-78
2023/01/02 02:53:59;;;;;;;50.47;16.80;;;;;4.30;96578.00;;;;8299390;28;20185;-78
2023/01/02 02:58:06;;;;;;;43.27;15.63;;;;;4.20;96572.00;;;;8298826;28;20277;-77
2023/01/02 03:02:11;;;;;;;54.10;16.30;;;;;4.20;96579.00;;;;8313122;23;20234;-80
2023/01/02 03:06:27;;;;;;;45.43;16.80;;;;;4.20;96570.00;;;;8272305;28;20202;-79
2023/01/02 03:10:42;;;;;;;58.13;18.63;;;;;4.20;96578.00;;;;8277625;28;20245;-78
2023/01/02 03:14:58;;;;;;;52.47;18.23;;;;;4.20;96586.00;;;;8275856;28;20213;-81
2023/01/02 03:19:09;;;;;;;46.67;16.07;;;;;4.20;96587.00;;;;8278969;28;20712;-80
2023/01/02 03:23:20;;;;;;;51.63;16.60;;;;;4.10;96593.00;;;;8278876;28;20218;-80
2023/01/02 03:27:31;;;;;;;82.37;17.03;;;;;4.10;96574.00;;;;8280887;28;20323;-82
2023/01/02 03:31:40;;;;;;;54.83;15.40;;;;;4.00;96583.00;;;;8282929;28;20208;-80
2023/01/02 03:35:47;;;;;;;58.20;16.30;;;;;3.90;96576.00;;;;8278956;28;20208;-80
2023/01/02 03:39:56;;;;;;;53.20;17.13;;;;;3.80;96588.00;;;;8283114;28;20267;-80
2023/01/02 03:44:04;;;;;;;58.13;17.47;;;;;3.80;96586.00;;;;8283350;28;20216;-80
2023/01/02 03:48:13;;;;;;;55.90;17.83;;;;;3.90;96574.00;;;;8285291;28;20796;-80
2023/01/02 03:52:22;;;;;;;59.27;16.27;;;;;3.90;96579.00;;;;8283832;28;20963;-80
2023/01/02 03:56:37;;;;;;;45.20;15.83;;;;;3.90;96573.00;;;;8286901;28;20201;-79
2023/01/02 04:00:52;;;;;;;52.00;15.20;;;;;3.90;96568.00;;;;8282545;28;20206;-80
2023/01/02 04:04:58;;;;;;;49.07;15.30;;;;;3.90;96563.00;;;;8288245;28;20229;-79
2023/01/02 04:09:14;;;;;;;45.73;15.80;;;;;3.90;96571.00;;;;8287568;28;20240;-81
2023/01/02 04:13:24;;;;;;;50.67;16.60;;;;;4.00;96582.00;;;;8280196;28;20297;-79
2023/01/02 04:17:31;;;;;;;60.60;16.97;;;;;4.00;96578.00;;;;8274671;28;20233;-80
2023/01/02 04:21:42;;;;;;;58.63;17.53;;;;;3.90;96573.00;;;;8286605;28;20263;-80
2023/01/02 04:25:50;;;;;;;55.77;16.47;;;;;3.90;96581.00;;;;8282394;28;20205;-79
2023/01/02 04:29:57;;;;;;;59.73;17.87;;;;;3.80;96578.00;;;;8285354;28;20643;-80
2023/01/02 04:34:02;;;;;;;76.70;18.30;;;;;3.90;96565.00;;;;8282628;28;22085;-80
2023/01/02 04:38:12;;;;;;;57.20;16.27;;;;;4.00;96573.00;;;;8283096;28;20556;-80
2023/01/02 04:42:16;;;;;;;56.57;16.17;;;;;4.00;96567.00;;;;8284126;28;20202;-80
2023/01/02 04:46:20;;;;;;;50.60;16.10;;;;;4.00;96569.00;;;;8284383;28;20248;-80
2023/01/02 04:50:26;;;;;;;59.27;17.73;;;;;4.10;96580.00;;;;8284060;28;20225;-80
2023/01/02 04:54:31;;;;;;;59.03;18.20;;;;;4.10;96584.00;;;;8283255;28;20788;-78
2023/01/02 04:58:34;;;;;;;56.30;17.03;;;;;4.20;96579.00;;;;8270854;28;20202;-81
2023/01/02 05:02:40;;;;;;;62.83;17.97;;;;;4.30;96577.00;;;;8247606;28;20238;-83
2023/01/02 05:06:43;;;;;;;58.23;18.27;;;;;4.40;96584.00;;;;8273871;28;20251;-80
2023/01/02 05:10:49;;;;;;;63.10;17.43;;;;;4.50;96594.00;;;;8275049;28;20233;-79
2023/01/02 05:14:55;;;;;;;70.63;17.40;;;;;4.50;96589.00;;;;8279188;28;20329;-80
2023/01/02 05:19:03;;;;;;;67.63;19.40;;;;;4.50;96579.00;;;;8282200;28;20237;-77
2023/01/02 05:27:32;;;;;;;62.20;17.97;;;;;4.70;96577.00;;;;8278427;28;20228;-78
2023/01/02 05:31:36;;;;;;;63.53;18.23;;;;;4.70;96581.00;;;;8275615;28;20247;-77
2023/01/02 05:35:42;;;;;;;70.57;18.77;;;;;4.80;96583.00;;;;8276958;28;20285;-79
2023/01/02 05:39:47;;;;;;;65.40;16.47;;;;;4.80;96587.00;;;;8276207;28;20206;-79
2023/01/02 05:43:54;;;;;;;60.70;17.27;;;;;4.70;96597.00;;;;8277008;28;20198;-80
2023/01/02 05:47:59;;;;;;;61.63;16.67;;;;;4.60;96608.00;;;;8276677;28;20236;-80
2023/01/02 05:52:05;;;;;;;84.03;18.27;;;;;4.60;96599.00;;;;8278782;28;20205;-80
2023/01/02 05:56:10;;;;;;;99.17;22.70;;;;;4.50;96608.00;;;;8280178;28;20262;-83
2023/01/02 06:00:14;;;;;;;322.00;26.47;;;;;4.40;96597.00;;;;8280166;28;20206;-81
2023/01/02 06:04:20;;;;;;;249.53;23.77;;;;;4.30;96588.00;;;;8278728;28;20237;-82
2023/01/02 06:08:26;;;;;;;209.33;22.67;;;;;4.20;96604.00;;;;8276958;28;20230;-81
2023/01/02 06:12:31;;;;;;;128.63;17.50;;;;;4.10;96592.00;;;;8275583;28;20205;-80
2023/01/02 06:16:42;;;;;;;62.53;16.10;;;;;4.10;96595.00;;;;8281520;28;20909;-81
2023/01/02 06:20:48;;;;;;;85.50;19.07;;;;;4.10;96602.00;;;;8280808;28;20209;-80
2023/01/02 06:24:59;;;;;;;93.53;18.33;;;;;4.10;96595.00;;;;8280583;28;20214;-81
2023/01/02 06:29:03;;;;;;;59.07;16.53;;;;;4.00;96585.00;;;;8280146;28;20237;-80
2023/01/02 06:33:08;;;;;;;45.77;15.33;;;;;3.90;96578.00;;;;8277139;28;20263;-80
2023/01/02 06:37:11;;;;;;;50.93;15.77;;;;;3.90;96583.00;;;;8280126;28;20213;-79
2023/01/02 06:41:17;;;;;;;54.70;15.47;;;;;3.90;96575.00;;;;8281189;28;20289;-82
2023/01/02 06:45:22;;;;;;;57.20;17.97;;;;;3.80;96579.00;;;;8280819;28;20193;-82
2023/01/02 06:49:29;;;;;;;56.00;17.77;;;;;4.00;96583.00;;;;8278404;28;20287;-83
2023/01/02 06:53:36;;;;;;;60.00;19.03;;;;;4.00;96587.00;;;;8281427;28;20206;-83
2023/01/02 06:57:46;;;;;;;44.70;16.43;;;;;4.20;96574.00;;;;8280999;28;20206;-83
2023/01/02 07:01:50;;;;;;;53.77;16.73;;;;;4.30;96584.00;;;;8279083;28;20222;-82
2023/01/02 07:06:01;;;;;;;58.77;18.07;;;;;4.40;96591.00;;;;8278712;28;20294;-80
2023/01/02 07:10:12;;;;;;;53.13;17.70;;;;;4.50;96607.00;;;;8279284;28;20206;-81
2023/01/02 07:14:17;;;;;;;49.00;16.27;;;;;4.50;96608.00;;;;8279186;28;20670;-81
2023/01/02 07:18:20;;;;;;;53.60;16.53;;;;;4.50;96604.00;;;;8278756;28;20209;-81
2023/01/02 07:22:27;;;;;;;53.23;15.57;;;;;4.40;96605.00;;;;8275812;28;20256;-80
2023/01/02 07:26:32;;;;;;;55.53;15.97;;;;;4.40;96609.00;;;;8277089;28;20666;-81
2023/01/02 07:30:39;;;;;;;63.23;18.07;;;;;4.50;96620.00;;;;8280649;28;20314;-80
2023/01/02 07:34:43;;;;;;;55.00;15.40;;;;;4.40;96615.00;;;;8278373;28;20202;-79
2023/01/02 07:38:50;;;;;;;51.10;15.90;;;;;4.40;96620.00;;;;8281145;28;20206;-79
2023/01/02 07:42:56;;;;;;;48.90;17.17;;;;;4.50;96619.00;;;;8277976;28;20202;-80
2023/01/02 07:47:00;;;;;;;46.37;17.10;;;;;4.70;96627.00;;;;8276273;28;20249;-77
2023/01/02 07:51:05;;;;;;;57.37;18.60;;;;;5.00;96625.00;;;;8278049;28;20242;-78
2023/01/02 07:55:11;;;;;;;66.83;20.13;;;;;5.30;96627.00;;;;8279328;28;20251;-79
2023/01/02 07:59:14;;;;;;;59.07;20.23;;;;;5.60;96626.00;;;;8274622;28;20313;-80
2023/01/02 08:03:18;;;;;;;57.43;19.13;;;;;5.90;96615.00;;;;8272114;28;20229;-78
2023/01/02 08:07:23;;;;;;;60.30;19.10;;;;;6.10;96609.00;;;;8276567;28;20261;-80
2023/01/02 08:11:29;;;;;;;54.17;17.70;;;;;6.30;96616.00;;;;8283558;28;20222;-81
2023/01/02 08:15:32;;;;;;;47.37;18.30;;;;;6.50;96607.00;;;;8287516;28;20217;-79
2023/01/02 08:19:38;;;;;;;46.03;18.33;;;;;6.60;96619.00;;;;8289080;28;20552;-79
2023/01/02 08:28:59;;;;;;;45.03;18.63;;;;;6.90;96641.00;;;;8302971;28;20204;-78
2023/01/02 08:33:36;;;;;;;40.47;16.87;;;;;6.90;96642.00;;;;8303830;28;20201;-78
2023/01/02 08:38:14;;;;;;;45.60;18.33;;;;;7.00;96649.00;;;;8302434;28;20249;-77
2023/01/02 08:42:49;;;;;;;45.70;17.77;;;;;7.00;96648.00;;;;8303056;28;20257;-78
2023/01/02 08:47:26;;;;;;;45.00;18.30;;;;;7.10;96642.00;;;;8302951;28;20221;-78
2023/01/02 08:52:03;;;;;;;39.83;15.90;;;;;7.30;96644.00;;;;8303204;28;20275;-78
2023/01/02 08:56:44;;;;;;;41.43;16.47;;;;;7.50;96647.00;;;;8302890;28;20202;-78
2023/01/02 09:00:48;;;;;;;43.72;16.40;;;;;7.80;96650.00;;;;8285182;28;20233;-77
2023/01/02 09:04:51;;;;;;;34.37;14.33;;;;;7.90;96653.00;;;;8303151;28;20230;-81
2023/01/02 09:08:58;;;;;;;42.57;15.30;;;;;8.10;96646.00;;;;8301392;28;20218;-76
2023/01/02 09:13:14;;;;;;;34.10;14.60;;;;;8.10;96659.00;;;;8301608;28;20627;-80
2023/01/02 09:17:46;;;;;;;38.50;15.60;;;;;8.20;96681.00;;;;8298269;28;20190;-78
2023/01/02 09:22:23;;;;;;;33.83;14.30;;;;;8.30;96675.00;;;;8298814;28;20190;-80
2023/01/02 09:27:00;;;;;;;30.60;14.23;;;;;8.40;96683.00;;;;8300639;28;20698;-84
2023/01/02 09:31:39;;;;;;;28.02;13.60;;;;;8.60;96679.00;;;;8301858;28;20349;-77
2023/01/02 09:36:15;;;;;;;26.85;13.27;;;;;8.70;96680.00;;;;8302604;28;20317;-77
2023/01/02 09:40:50;;;;;;;26.98;12.77;;;;;8.80;96663.00;;;;8301257;28;20268;-78
2023/01/02 09:44:57;;;;;;;25.58;12.75;;;;;9.00;96670.00;;;;8300118;28;20639;-77
2023/01/02 09:49:33;;;;;;;26.20;12.15;;;;;9.10;96681.00;;;;8285987;28;20707;-80
2023/01/02 09:53:36;;;;;;;20.77;11.35;;;;;9.30;96661.00;;;;8301376;28;20277;-75
2023/01/02 09:57:44;;;;;;;24.42;12.27;;;;;9.50;96659.00;;;;8301216;28;20259;-79
2023/01/02 10:02:14;;;;;;;24.67;11.30;;;;;9.60;96654.00;;;;8299415;28;20211;-79
2023/01/02 10:06:23;;;;;;;20.58;11.23;;;;;9.70;96654.00;;;;8301446;28;20202;-78
2023/01/02 10:10:54;;;;;;;21.83;11.15;;;;;9.90;96649.00;;;;8299813;28;20242;-77
2023/01/02 10:15:31;;;;;;;18.52;9.68;;;;;10.10;96660.00;;;;8301667;28;20274;-77
2023/01/02 10:20:11;;;;;;;21.27;10.40;;;;;10.30;96652.00;;;;8300467;28;20215;-77
2023/01/02 10:24:45;;;;;;;16.17;9.85;;;;;10.40;96634.00;;;;8296781;28;20198;-76
2023/01/02 10:28:56;;;;;;;17.15;9.18;;;;;10.50;96635.00;;;;8300415;28;20240;-81
2023/01/02 10:33:06;;;;;;;14.57;7.72;;;;;10.70;96639.00;;;;8299575;28;20227;-77
2023/01/02 10:37:37;;;;;;;14.30;8.45;;;;;10.90;96637.00;;;;8299981;28;20527;-78
2023/01/02 10:42:16;;;;;;;16.08;8.40;;;;;11.10;96619.00;;;;8297317;28;20206;-77
2023/01/02 10:46:49;;;;;;;12.10;7.80;;;;;11.30;96643.00;;;;8299167;28;20214;-77
2023/01/02 10:50:56;;;;;;;13.48;8.10;;;;;11.40;96636.00;;;;8299297;28;20232;-79
2023/01/02 10:55:00;;;;;;;15.90;8.10;;;;;11.40;96632.00;;;;8299467;28;20284;-77
2023/01/02 10:59:37;;;;;;;15.80;8.50;;;;;11.50;96647.00;;;;8298030;28;20207;-77
2023/01/02 11:04:11;;;;;;;13.40;8.65;;;;;11.40;96645.00;;;;8298023;28;20251;-79
2023/01/02 11:13:47;;;;;;;14.18;8.30;;;;;11.40;96625.00;;;;8298821;28;20716;-79
2023/01/02 11:17:58;;;;;;;15.57;8.70;;;;;11.50;96625.00;;;;8299969;28;20211;-78
2023/01/02 11:22:34;;;;;;;18.35;9.80;;;;;11.60;96618.00;;;;8296910;28;20184;-78
2023/01/02 11:27:12;;;;;;;15.40;8.68;;;;;11.60;96609.00;;;;8299081;28;20193;-77
2023/01/02 11:31:16;;;;;;;16.70;8.70;;;;;11.70;96608.00;;;;8298879;28;20594;-77
2023/01/02 11:35:53;;;;;;;14.88;8.57;;;;;11.80;96614.00;;;;8297914;28;20194;-77
2023/01/02 11:40:04;;;;;;;15.40;9.15;;;;;11.80;96615.00;;;;8298481;28;20204;-78
2023/01/02 11:44:08;;;;;;;14.57;8.55;;;;;11.90;96618.00;;;;8299743;28;20198;-77
2023/01/02 11:48:42;;;;;;;19.30;10.30;;;;;12.00;96619.00;;;;8299828;28;20206;-77
2023/01/02 11:52:54;;;;;;;18.25;9.75;;;;;12.00;96609.00;;;;8304559;28;20219;-77
2023/01/02 11:57:31;;;;;;;17.23;9.73;;;;;12.00;96614.00;;;;8302103;28;20686;-77
2023/01/02 12:02:01;;;;;;;17.42;9.23;;;;;11.90;96602.00;;;;8302998;28;20210;-77
2023/01/02 12:06:42;;;;;;;21.42;10.32;;;;;11.70;96609.00;;;;8304438;28;20528;-77
2023/01/02 12:16:28;;;;;;;18.58;9.73;;;;;11.60;96619.00;;;;8302937;28;20303;-77
2023/01/02 12:20:55;;;;;;;19.58;10.25;;;;;11.60;96623.00;;;;8303479;28;20209;-76
2023/01/02 12:25:35;;;;;;;17.13;9.75;;;;;11.70;96616.00;;;;8304025;28;20714;-76
2023/01/02 12:30:08;;;;;;;16.73;10.02;;;;;11.80;96620.00;;;;8303817;28;20733;-77
2023/01/02 12:34:59;;;;;;;16.80;9.93;;;;;11.80;96622.00;;;;8302653;28;20312;-77
2023/01/02 12:39:38;;;;;;;18.05;10.15;;;;;11.80;96621.00;;;;8303468;28;20688;-76
2023/01/02 12:44:25;;;;;;;24.15;11.45;;;;;11.80;96625.00;;;;8302638;28;20194;-76
2023/01/02 12:49:09;;;;;;;17.55;10.25;;;;;11.80;96633.00;;;;8236154;28;20290;-73
2023/01/02 12:53:51;;;;;;;23.02;10.20;;;;;11.70;96641.00;;;;8234029;28;20592;-76
2023/01/02 13:03:47;;;;;;;18.63;10.68;;;;;11.50;96645.00;;;;8301565;28;20723;-76
2023/01/02 13:08:27;;;;;;;16.58;9.98;;;;;11.40;96647.00;;;;8303345;28;20259;-76
2023/01/02 13:13:02;;;;;;;20.27;10.18;;;;;11.40;96647.00;;;;8302790;28;20264;-76
2023/01/02 13:17:42;;;;;;;33.33;10.00;;;;;11.30;96652.00;;;;8301672;28;20613;-76
2023/01/02 13:22:22;;;;;;;18.77;10.32;;;;;11.20;96658.00;;;;8302814;28;20233;-76
2023/01/02 13:26:30;;;;;;;19.17;9.38;;;;;11.10;96659.00;;;;8301284;28;20202;-77
2023/01/02 13:30:38;;;;;;;16.95;9.30;;;;;11.10;96662.00;;;;8300281;28;20282;-76
2023/01/02 13:34:52;;;;;;;16.15;9.48;;;;;11.00;96657.00;;;;8302259;28;20194;-76
2023/01/02 13:39:18;;;;;;;13.63;8.57;;;;;11.00;96667.00;;;;8301700;28;20630;-76
2023/01/02 13:43:52;;;;;;;19.40;10.10;;;;;11.00;96664.00;;;;8301195;28;20590;-76
2023/01/02 13:48:35;;;;;;;17.35;8.98;;;;;11.00;96669.00;;;;8295186;28;20253;-76
2023/01/02 13:57:43;;;;;;;16.75;9.65;;;;;11.10;96660.00;;;;8298360;28;20257;-77
2023/01/02 14:02:19;;;;;;;16.17;8.70;;;;;11.10;96674.00;;;;8299591;28;20210;-77
2023/01/02 14:06:58;;;;;;;17.02;8.82;;;;;11.00;96671.00;;;;8301254;28;20232;-77
2023/01/02 14:11:31;;;;;;;16.30;9.48;;;;;11.00;96674.00;;;;8298437;28;20230;-77
2023/01/02 14:16:40;;;;;;;16.10;9.27;;;;;10.90;96675.00;;;;8299105;28;20190;-76
2023/01/02 14:21:12;;;;;;;15.93;9.25;;;;;10.80;96681.00;;;;8299889;28;20579;-76
2023/01/02 14:25:53;;;;;;;15.40;9.23;;;;;10.80;96683.00;;;;8300132;28;20646;-76
2023/01/02 14:30:29;;;;;;;18.55;9.40;;;;;10.70;96678.00;;;;8299943;28;20256;-76
2023/01/02 14:35:02;;;;;;;18.48;10.27;;;;;10.60;96682.00;;;;8300066;28;20709;-76
2023/01/02 14:39:37;;;;;;;18.73;9.43;;;;;10.50;96674.00;;;;8298656;28;20206;-76
2023/01/02 14:44:15;;;;;;;19.67;9.60;;;;;10.40;96667.00;;;;8298299;28;20299;-76
2023/01/02 14:48:24;;;;;;;17.13;9.95;;;;;10.30;96673.00;;;;8299115;28;20198;-77
2023/01/02 14:52:59;;;;;;;19.92;9.30;;;;;10.10;96682.00;;;;8297204;28;20221;-77
2023/01/02 14:57:32;;;;;;;19.60;11.00;;;;;10.00;96673.00;;;;8299119;28;20536;-76
2023/01/02 15:02:13;;;;;;;20.10;10.50;;;;;9.90;96676.00;;;;8297119;28;20687;-76
2023/01/02 15:06:25;;;;;;;17.25;9.68;;;;;9.90;96684.00;;;;8299030;28;20268;-76
2023/01/02 15:10:54;;;;;;;19.45;9.95;;;;;9.70;96703.00;;;;8295457;28;20191;-77
2023/01/02 15:20:01;;;;;;;17.77;9.60;;;;;9.50;96704.00;;;;8297702;28;20194;-76
2023/01/02 15:24:32;;;;;;;29.05;13.93;;;;;9.30;96725.00;;;;8301333;28;20200;-76
2023/01/02 15:28:39;;;;;;;19.77;10.80;;;;;9.20;96725.00;;;;8304557;28;20236;-76
2023/01/02 15:32:49;;;;;;;21.65;10.07;;;;;9.00;96727.00;;;;8305653;28;20252;-76
2023/01/02 15:37:22;;;;;;;18.13;9.40;;;;;8.80;96736.00;;;;8305259;28;20202;-76
2023/01/02 15:41:57;;;;;;;17.93;9.87;;;;;8.60;96741.00;;;;8305285;28;20217;-76
2023/01/02 15:46:34;;;;;;;23.53;12.17;;;;;8.50;96759.00;;;;8304296;28;20190;-76
2023/01/02 15:51:09;;;;;;;20.50;10.90;;;;;8.60;96759.00;;;;8305637;28;20205;-76
2023/01/02 15:55:48;;;;;;;18.03;10.50;;;;;8.50;96776.00;;;;8300735;28;20229;-75
2023/01/02 15:59:51;;;;;;;19.27;9.97;;;;;8.50;96778.00;;;;8304506;28;20204;-76
2023/01/02 16:03:58;;;;;;;21.23;11.77;;;;;8.50;96777.00;;;;8304252;28;20232;-76
2023/01/02 16:08:36;;;;;;;22.35;11.90;;;;;8.40;96788.00;;;;8300387;28;20203;-75
2023/01/02 16:18:38;;;;;;;23.20;11.80;;;;;8.40;96798.00;;;;8303760;28;20201;-76
2023/01/02 16:23:19;;;;;;;21.20;11.00;;;;;8.40;96801.00;;;;8302630;28;20203;-76
2023/01/02 16:27:54;;;;;;;24.00;11.10;;;;;8.40;96801.00;;;;8303224;28;20194;-76
2023/01/02 16:32:01;;;;;;;25.57;11.73;;;;;8.40;96801.00;;;;8302810;28;20228;-75
2023/01/02 16:36:24;;;;;;;24.80;10.90;;;;;8.40;96799.00;;;;8299394;28;20693;-76
2023/01/02 16:40:48;;;;;;;23.87;11.37;;;;;8.40;96797.00;;;;8300384;28;20178;-76
2023/01/02 16:45:06;;;;;;;20.87;10.93;;;;;8.40;96806.00;;;;8303892;28;20183;-75
2023/01/02 16:49:14;;;;;;;19.30;10.13;;;;;8.50;96813.00;;;;8303244;28;20190;-75
2023/01/02 16:53:45;;;;;;;23.25;11.82;;;;;8.50;96821.00;;;;8302626;28;20260;-75
2023/01/02 16:58:24;;;;;;;18.43;10.37;;;;;8.40;96831.00;;;;8300889;28;20197;-76
2023/01/02 17:02:58;;;;;;;18.83;9.07;;;;;8.40;96836.00;;;;8300198;28;20267;-75
2023/01/02 17:07:37;;;;;;;26.77;11.57;;;;;8.40;96843.00;;;;8302301;28;20198;-75
2023/01/02 17:11:58;;;;;;;20.07;10.70;;;;;8.40;96843.00;;;;8300596;28;20218;-75
2023/01/02 17:16:05;;;;;;;25.23;12.20;;;;;8.50;96846.00;;;;8301833;28;20213;-76
2023/01/02 17:20:39;;;;;;;28.93;13.60;;;;;8.50;96844.00;;;;8302275;28;20225;-75
2023/01/02 17:24:42;;;;;;;26.75;12.65;;;;;8.50;96848.00;;;;8301145;28;20248;-75
2023/01/02 17:28:56;;;;;;;25.48;11.43;;;;;8.50;96858.00;;;;8301879;28;20248;-75
2023/01/02 17:33:00;;;;;;;19.88;10.40;;;;;8.60;96856.00;;;;8301575;28;20218;-75
2023/01/02 17:37:38;;;;;;;20.27;10.13;;;;;8.60;96859.00;;;;8301715;28;20193;-75
2023/01/02 17:41:41;;;;;;;20.27;11.05;;;;;8.60;96857.00;;;;8302404;28;20587;-75
2023/01/02 17:45:52;;;;;;;19.67;10.07;;;;;8.60;96868.00;;;;8301279;28;20338;-75
2023/01/02 17:50:24;;;;;;;25.13;10.90;;;;;8.60;96872.00;;;;8302228;28;20281;-75
2023/01/02 17:54:32;;;;;;;25.10;12.75;;;;;8.60;96882.00;;;;8302480;28;20229;-75
2023/01/02 17:59:10;;;;;;;24.17;11.95;;;;;8.60;96870.00;;;;8300966;28;20198;-75
2023/01/02 18:03:16;;;;;;;22.03;12.27;;;;;8.70;96871.00;;;;8301303;28;20249;-75
2023/01/02 18:07:58;;;;;;;23.55;12.13;;;;;8.70;96882.00;;;;8300550;28;20249;-75
2023/01/02 18:12:26;;;;;;;24.53;11.63;;;;;8.70;96880.00;;;;8301171;28;20637;-75
2023/01/02 18:16:38;;;;;;;21.92;10.82;;;;;8.70;96891.00;;;;8300789;28;20201;-76
2023/01/02 18:20:44;;;;;;;24.08;11.15;;;;;8.70;96886.00;;;;8298910;28;20202;-75
2023/01/02 18:24:48;;;;;;;21.80;11.80;;;;;8.70;96888.00;;;;8301544;28;20206;-75
2023/01/02 18:28:55;;;;;;;21.23;11.30;;;;;8.70;96891.00;;;;8299155;28;20575;-75
2023/01/02 18:33:27;;;;;;;21.87;11.50;;;;;8.60;96895.00;;;;8300086;28;20218;-75
2023/01/02 18:37:34;;;;;;;20.53;11.80;;;;;8.70;96895.00;;;;8294253;28;20281;-75
2023/01/02 18:41:40;;;;;;;21.03;10.63;;;;;8.70;96902.00;;;;8298940;28;20628;-75
2023/01/02 18:46:15;;;;;;;23.77;11.43;;;;;8.70;96913.00;;;;8298043;28;20197;-74
2023/01/02 18:50:50;;;;;;;21.90;11.37;;;;;8.70;96928.00;;;;8297710;28;20198;-75
2023/01/02 18:55:30;;;;;;;23.40;12.17;;;;;8.70;96927.00;;;;8299161;28;20257;-77
2023/01/02 18:59:44;;;;;;;20.27;10.63;;;;;8.70;96931.00;;;;8299130;28;20339;-77
2023/01/02 19:03:48;;;;;;;22.55;9.98;;;;;8.70;96939.00;;;;8296744;28;20225;-77
2023/01/02 19:08:06;;;;;;;19.63;11.18;;;;;8.60;96940.00;;;;8296087;28;20691;-78
2023/01/02 19:17:01;;;;;;;20.27;10.83;;;;;8.60;96944.00;;;;8280192;28;20212;-76
2023/01/02 19:21:34;;;;;;;18.33;9.97;;;;;8.60;96946.00;;;;8276767;28;20198;-77
2023/01/02 19:26:13;;;;;;;23.97;11.97;;;;;8.70;96940.00;;;;8284685;28;20256;-76
2023/01/02 19:30:45;;;;;;;21.55;11.40;;;;;8.70;96949.00;;;;8295473;28;20194;-77
2023/01/02 19:35:31;;;;;;;22.70;11.70;;;;;8.70;96950.00;;;;8294778;28;20590;-77
2023/01/02 19:39:57;;;;;;;21.73;11.10;;;;;8.70;96957.00;;;;8291186;28;20221;-75
2023/01/02 19:44:28;;;;;;;23.50;10.45;;;;;8.70;96957.00;;;;8296855;28;20198;-75
2023/01/02 19:49:06;;;;;;;17.50;9.80;;;;;8.70;96955.00;;;;8296693;28;20669;-75
2023/01/02 19:53:39;;;;;;;16.08;9.10;;;;;8.60;96959.00;;;;8294726;28;20229;-75
2023/01/02 19:58:19;;;;;;;19.20;10.27;;;;;8.60;96970.00;;;;8295491;28;20197;-75
2023/01/02 20:02:53;;;;;;;19.63;9.17;;;;;8.60;96983.00;;;;8296973;28;20214;-75
2023/01/02 20:07:29;;;;;;;20.48;10.73;;;;;8.60;96981.00;;;;8298037;28;20198;-75
2023/01/02 20:21:24;;;;;;;23.58;10.55;;;;;8.60;96988.00;;;;8304639;28;20202;-75
2023/01/02 20:25:59;;;;;;;21.20;10.70;;;;;8.50;96988.00;;;;8301282;28;20249;-75
2023/01/02 20:30:36;;;;;;;17.67;9.60;;;;;8.40;96989.00;;;;8299843;28;20194;-75
2023/01/02 20:35:10;;;;;;;25.63;10.17;;;;;8.30;96984.00;;;;8302343;28;20272;-75
2023/01/02 20:39:48;;;;;;;20.67;9.60;;;;;8.20;96992.00;;;;8302523;28;20198;-75
2023/01/02 20:43:53;;;;;;;14.77;7.53;;;;;8.10;96987.00;;;;8300061;28;20628;-76
2023/01/02 20:47:56;;;;;;;25.00;10.23;;;;;8.10;96991.00;;;;8301999;28;20585;-76
2023/01/02 20:52:01;;;;;;;14.97;7.37;;;;;8.10;96991.00;;;;8299822;28;20643;-77
2023/01/02 20:56:10;;;;;;;15.43;8.00;;;;;8.10;97004.00;;;;8303312;28;20319;-76
2023/01/02 21:00:42;;;;;;;19.73;7.67;;;;;8.10;97006.00;;;;8300726;28;20206;-76
2023/01/02 21:04:46;;;;;;;20.92;8.32;;;;;8.20;97010.00;;;;8300829;28;20222;-76
2023/01/02 21:08:50;;;;;;;41.40;15.23;;;;;8.20;97011.00;;;;8301391;28;20632;-77
2023/01/02 21:13:10;;;;;;;28.47;13.40;;;;;8.20;97026.00;;;;8302147;28;20890;-76
2023/01/02 21:17:15;;;;;;;22.00;10.37;;;;;8.40;97027.00;;;;8301525;28;20210;-77
2023/01/02 21:21:21;;;;;;;13.00;7.17;;;;;8.50;97039.00;;;;8301561;28;20248;-77
2023/01/02 21:25:27;;;;;;;15.43;7.20;;;;;8.50;97045.00;;;;8301900;28;20224;-76
2023/01/02 21:29:59;;;;;;;21.83;8.60;;;;;8.50;97041.00;;;;8299126;28;20663;-76
2023/01/02 21:34:04;;;;;;;8.30;5.37;;;;;8.60;97054.00;;;;8299433;28;20541;-76
2023/01/02 21:38:13;;;;;;;18.13;6.95;;;;;8.70;97060.00;;;;8300556;28;20198;-75
2023/01/02 21:42:18;;;;;;;16.98;6.82;;;;;8.80;97055.00;;;;8300926;28;20201;-75
2023/01/02 21:46:56;;;;;;;13.30;6.32;;;;;8.80;97057.00;;;;8300016;28;20280;-75
2023/01/02 21:51:01;;;;;;;14.43;5.70;;;;;8.80;97065.00;;;;8302087;28;20607;-75
2023/01/02 21:55:06;;;;;;;9.97;5.30;;;;;8.80;97068.00;;;;8300448;28;20226;-75
2023/01/02 21:59:43;;;;;;;10.90;4.83;;;;;8.80;97083.00;;;;8298649;28;20194;-75
2023/01/02 22:03:46;;;;;;;12.27;4.88;;;;;8.90;97084.00;;;;8299165;28;20619;-76
2023/01/02 22:07:54;;;;;;;8.82;5.00;;;;;9.00;97096.00;;;;8300624;28;20194;-75
2023/01/02 22:12:26;;;;;;;12.45;4.05;;;;;9.30;97096.00;;;;8299178;28;20233;-75
2023/01/02 22:16:32;;;;;;;5.30;2.47;;;;;9.90;97098.00;;;;8301361;28;20632;-75